sensor_id;sensor_type;location;lat;lon;timestamp;P1;durP1;ratioP1;P2;durP2;ratioP2
49578;SDS011;35483;50.828;3.228;2023-03-30T00:00:00;1.58;;;0.90;;
49578;SDS011;35483;50.828;3.228;2023-03-30T00:02:38;1.10;;;1.00;;
49578;SDS011;35483;50.828;3.228;2023-03-30T00:05:08;3.53;;;1.30;;
49578;SDS011;35483;50.828;3.228;2023-03-30T00:07:34;2.22;;;1.27;;
49578;SDS011;35483;50.828;3.228;2023-03-30T00:10:02;3.88;;;1.48;;
49578;SDS011;35483;50.828;3.228;2023-03-30T00:12:30;1.88;;;1.65;;
49578;SDS011;35483;50.828;3.228;2023-03-30T00:14:56;2.28;;;1.33;;
49578;SDS011;35483;50.828;3.228;2023-03-30T00:17:22;2.47;;;1.40;;
49578;SDS011;35483;50.828;3.228;2023-03-30T00:19:48;3.67;;;1.67;;
49578;SDS011;35483;50.828;3.228;2023-03-30T00:22:13;3.10;;;1.52;;
49578;SDS011;35483;50.828;3.228;2023-03-30T00:24:40;3.42;;;1.02;;
49578;SDS011;35483;50.828;3.228;2023-03-30T00:27:05;1.70;;;1.15;;
49578;SDS011;35483;50.828;3.228;2023-03-30T00:29:32;3.00;;;1.20;;
49578;SDS011;35483;50.828;3.228;2023-03-30T00:31:57;1.90;;;1.30;;
49578;SDS011;35483;50.828;3.228;2023-03-30T00:34:23;1.15;;;1.08;;
49578;SDS011;35483;50.828;3.228;2023-03-30T00:36:49;2.72;;;1.17;;
49578;SDS011;35483;50.828;3.228;2023-03-30T00:39:17;3.00;;;1.50;;
49578;SDS011;35483;50.828;3.228;2023-03-30T00:41:47;3.25;;;1.10;;
49578;SDS011;35483;50.828;3.228;2023-03-30T00:47:17;3.85;;;1.95;;
49578;SDS011;35483;50.828;3.228;2023-03-30T00:49:43;2.67;;;1.52;;
49578;SDS011;35483;50.828;3.228;2023-03-30T00:52:10;3.72;;;2.05;;
49578;SDS011;35483;50.828;3.228;2023-03-30T00:54:37;4.22;;;1.98;;
49578;SDS011;35483;50.828;3.228;2023-03-30T00:57:04;2.15;;;1.73;;
49578;SDS011;35483;50.828;3.228;2023-03-30T00:59:31;5.72;;;2.17;;
49578;SDS011;35483;50.828;3.228;2023-03-30T01:01:57;3.78;;;2.20;;
49578;SDS011;35483;50.828;3.228;2023-03-30T01:04:24;3.17;;;2.05;;
49578;SDS011;35483;50.828;3.228;2023-03-30T01:06:50;3.22;;;2.28;;
49578;SDS011;35483;50.828;3.228;2023-03-30T01:09:16;3.47;;;1.75;;
49578;SDS011;35483;50.828;3.228;2023-03-30T01:11:43;2.97;;;1.95;;
49578;SDS011;35483;50.828;3.228;2023-03-30T01:14:10;3.75;;;1.77;;
49578;SDS011;35483;50.828;3.228;2023-03-30T01:22:12;4.88;;;2.10;;
49578;SDS011;35483;50.828;3.228;2023-03-30T01:46:46;4.57;;;1.90;;
49578;SDS011;35483;50.828;3.228;2023-03-30T01:49:30;1.85;;;1.50;;
49578;SDS011;35483;50.828;3.228;2023-03-30T01:52:12;2.90;;;1.70;;
49578;SDS011;35483;50.828;3.228;2023-03-30T01:54:47;2.78;;;1.85;;
49578;SDS011;35483;50.828;3.228;2023-03-30T01:57:21;2.83;;;1.67;;
49578;SDS011;35483;50.828;3.228;2023-03-30T01:59:56;3.17;;;1.67;;
49578;SDS011;35483;50.828;3.228;2023-03-30T02:02:36;2.38;;;1.30;;
49578;SDS011;35483;50.828;3.228;2023-03-30T02:05:03;3.95;;;1.70;;
49578;SDS011;35483;50.828;3.228;2023-03-30T02:07:31;3.70;;;1.85;;
49578;SDS011;35483;50.828;3.228;2023-03-30T02:10:00;4.00;;;1.63;;
49578;SDS011;35483;50.828;3.228;2023-03-30T02:12:30;3.83;;;1.80;;
49578;SDS011;35483;50.828;3.228;2023-03-30T02:14:57;2.42;;;1.98;;
49578;SDS011;35483;50.828;3.228;2023-03-30T02:17:27;1.95;;;1.40;;
49578;SDS011;35483;50.828;3.228;2023-03-30T02:19:54;2.92;;;1.40;;
49578;SDS011;35483;50.828;3.228;2023-03-30T02:22:22;4.05;;;1.75;;
49578;SDS011;35483;50.828;3.228;2023-03-30T02:24:52;4.28;;;1.90;;
49578;SDS011;35483;50.828;3.228;2023-03-30T02:27:21;3.08;;;1.58;;
49578;SDS011;35483;50.828;3.228;2023-03-30T02:29:48;2.30;;;1.45;;
49578;SDS011;35483;50.828;3.228;2023-03-30T02:32:21;3.22;;;1.95;;
49578;SDS011;35483;50.828;3.228;2023-03-30T02:37:47;4.45;;;1.58;;
49578;SDS011;35483;50.828;3.228;2023-03-30T02:45:52;2.33;;;1.35;;
49578;SDS011;35483;50.828;3.228;2023-03-30T02:48:35;5.43;;;1.50;;
49578;SDS011;35483;50.828;3.228;2023-03-30T02:51:30;2.65;;;1.52;;
49578;SDS011;35483;50.828;3.228;2023-03-30T03:02:17;4.22;;;2.13;;
49578;SDS011;35483;50.828;3.228;2023-03-30T03:04:51;1.98;;;1.60;;
49578;SDS011;35483;50.828;3.228;2023-03-30T03:07:18;2.70;;;1.50;;
49578;SDS011;35483;50.828;3.228;2023-03-30T03:09:45;3.20;;;1.40;;
49578;SDS011;35483;50.828;3.228;2023-03-30T03:12:11;4.10;;;1.80;;
49578;SDS011;35483;50.828;3.228;2023-03-30T03:14:37;3.28;;;1.75;;
49578;SDS011;35483;50.828;3.228;2023-03-30T03:17:03;6.80;;;1.90;;
49578;SDS011;35483;50.828;3.228;2023-03-30T03:19:30;2.65;;;1.48;;
49578;SDS011;35483;50.828;3.228;2023-03-30T03:21:56;8.48;;;2.42;;
49578;SDS011;35483;50.828;3.228;2023-03-30T03:24:22;3.08;;;1.45;;
49578;SDS011;35483;50.828;3.228;2023-03-30T03:26:47;2.60;;;1.45;;
49578;SDS011;35483;50.828;3.228;2023-03-30T03:29:13;5.88;;;1.95;;
49578;SDS011;35483;50.828;3.228;2023-03-30T03:31:39;4.03;;;1.67;;
49578;SDS011;35483;50.828;3.228;2023-03-30T03:34:05;5.47;;;1.80;;
49578;SDS011;35483;50.828;3.228;2023-03-30T03:36:31;5.35;;;1.92;;
49578;SDS011;35483;50.828;3.228;2023-03-30T03:38:57;4.53;;;1.55;;
49578;SDS011;35483;50.828;3.228;2023-03-30T03:41:23;3.60;;;1.77;;
49578;SDS011;35483;50.828;3.228;2023-03-30T03:43:48;6.10;;;1.90;;
49578;SDS011;35483;50.828;3.228;2023-03-30T03:46:15;6.50;;;2.03;;
49578;SDS011;35483;50.828;3.228;2023-03-30T03:48:40;3.90;;;1.70;;
49578;SDS011;35483;50.828;3.228;2023-03-30T03:51:07;3.28;;;1.60;;
49578;SDS011;35483;50.828;3.228;2023-03-30T03:53:34;2.45;;;1.70;;
49578;SDS011;35483;50.828;3.228;2023-03-30T03:56:00;3.33;;;1.60;;
49578;SDS011;35483;50.828;3.228;2023-03-30T03:58:26;4.35;;;1.70;;
49578;SDS011;35483;50.828;3.228;2023-03-30T04:01:01;4.03;;;1.83;;
49578;SDS011;35483;50.828;3.228;2023-03-30T04:05:53;5.13;;;1.98;;
49578;SDS011;35483;50.828;3.228;2023-03-30T04:08:21;7.50;;;2.03;;
49578;SDS011;35483;50.828;3.228;2023-03-30T04:10:47;4.95;;;1.90;;
49578;SDS011;35483;50.828;3.228;2023-03-30T04:13:13;3.90;;;2.47;;
49578;SDS011;35483;50.828;3.228;2023-03-30T04:15:38;4.80;;;1.90;;
49578;SDS011;35483;50.828;3.228;2023-03-30T04:18:04;6.60;;;2.60;;
49578;SDS011;35483;50.828;3.228;2023-03-30T04:20:30;5.40;;;2.28;;
49578;SDS011;35483;50.828;3.228;2023-03-30T04:22:56;6.22;;;2.10;;
49578;SDS011;35483;50.828;3.228;2023-03-30T04:25:26;4.05;;;1.85;;
49578;SDS011;35483;50.828;3.228;2023-03-30T04:27:53;6.22;;;2.20;;
49578;SDS011;35483;50.828;3.228;2023-03-30T04:30:20;4.03;;;1.63;;
49578;SDS011;35483;50.828;3.228;2023-03-30T04:32:48;7.90;;;2.40;;
49578;SDS011;35483;50.828;3.228;2023-03-30T04:35:26;8.88;;;2.55;;
49578;SDS011;35483;50.828;3.228;2023-03-30T04:37:53;5.90;;;2.22;;
49578;SDS011;35483;50.828;3.228;2023-03-30T04:40:22;4.80;;;2.05;;
49578;SDS011;35483;50.828;3.228;2023-03-30T04:42:48;6.13;;;2.60;;
49578;SDS011;35483;50.828;3.228;2023-03-30T04:45:14;5.32;;;2.40;;
49578;SDS011;35483;50.828;3.228;2023-03-30T04:47:44;5.70;;;3.15;;
49578;SDS011;35483;50.828;3.228;2023-03-30T04:50:10;10.00;;;3.13;;
49578;SDS011;35483;50.828;3.228;2023-03-30T04:52:36;6.18;;;2.20;;
49578;SDS011;35483;50.828;3.228;2023-03-30T04:55:02;7.03;;;2.15;;
49578;SDS011;35483;50.828;3.228;2023-03-30T04:57:28;5.63;;;2.60;;
49578;SDS011;35483;50.828;3.228;2023-03-30T04:59:54;7.07;;;2.78;;
49578;SDS011;35483;50.828;3.228;2023-03-30T05:02:20;12.23;;;3.75;;
49578;SDS011;35483;50.828;3.228;2023-03-30T05:04:46;11.77;;;3.72;;
49578;SDS011;35483;50.828;3.228;2023-03-30T05:07:12;8.88;;;2.83;;
49578;SDS011;35483;50.828;3.228;2023-03-30T05:09:38;12.30;;;2.70;;
49578;SDS011;35483;50.828;3.228;2023-03-30T05:12:04;9.68;;;2.67;;
49578;SDS011;35483;50.828;3.228;2023-03-30T05:14:30;11.02;;;3.15;;
49578;SDS011;35483;50.828;3.228;2023-03-30T05:16:56;10.88;;;2.90;;
49578;SDS011;35483;50.828;3.228;2023-03-30T05:19:22;9.02;;;2.67;;
49578;SDS011;35483;50.828;3.228;2023-03-30T05:21:48;11.73;;;3.65;;
49578;SDS011;35483;50.828;3.228;2023-03-30T05:24:14;11.00;;;3.17;;
49578;SDS011;35483;50.828;3.228;2023-03-30T05:26:40;8.85;;;2.90;;
49578;SDS011;35483;50.828;3.228;2023-03-30T05:29:05;8.20;;;3.13;;
49578;SDS011;35483;50.828;3.228;2023-03-30T05:31:31;8.40;;;2.97;;
49578;SDS011;35483;50.828;3.228;2023-03-30T05:33:57;7.10;;;3.22;;
49578;SDS011;35483;50.828;3.228;2023-03-30T05:36:22;8.05;;;2.97;;
49578;SDS011;35483;50.828;3.228;2023-03-30T05:38:48;11.07;;;4.22;;
49578;SDS011;35483;50.828;3.228;2023-03-30T05:41:14;13.95;;;3.90;;
49578;SDS011;35483;50.828;3.228;2023-03-30T05:43:41;12.75;;;5.00;;
49578;SDS011;35483;50.828;3.228;2023-03-30T05:46:07;10.82;;;3.13;;
49578;SDS011;35483;50.828;3.228;2023-03-30T05:48:32;14.60;;;4.90;;
49578;SDS011;35483;50.828;3.228;2023-03-30T05:50:58;9.82;;;3.40;;
49578;SDS011;35483;50.828;3.228;2023-03-30T05:53:24;10.82;;;4.40;;
49578;SDS011;35483;50.828;3.228;2023-03-30T05:55:50;15.73;;;3.70;;
49578;SDS011;35483;50.828;3.228;2023-03-30T05:58:16;15.10;;;4.28;;
49578;SDS011;35483;50.828;3.228;2023-03-30T06:00:42;15.10;;;3.92;;
49578;SDS011;35483;50.828;3.228;2023-03-30T06:03:11;11.55;;;3.78;;
49578;SDS011;35483;50.828;3.228;2023-03-30T06:05:37;15.20;;;3.65;;
49578;SDS011;35483;50.828;3.228;2023-03-30T06:08:06;13.05;;;4.15;;
49578;SDS011;35483;50.828;3.228;2023-03-30T06:10:33;13.50;;;3.90;;
49578;SDS011;35483;50.828;3.228;2023-03-30T06:13:00;14.57;;;3.17;;
49578;SDS011;35483;50.828;3.228;2023-03-30T06:15:26;13.05;;;4.45;;
49578;SDS011;35483;50.828;3.228;2023-03-30T06:17:52;13.73;;;3.92;;
49578;SDS011;35483;50.828;3.228;2023-03-30T06:20:18;14.45;;;4.10;;
49578;SDS011;35483;50.828;3.228;2023-03-30T06:22:46;15.30;;;4.25;;
49578;SDS011;35483;50.828;3.228;2023-03-30T06:25:12;17.45;;;4.97;;
49578;SDS011;35483;50.828;3.228;2023-03-30T06:27:39;13.43;;;4.22;;
49578;SDS011;35483;50.828;3.228;2023-03-30T06:30:05;11.70;;;4.00;;
49578;SDS011;35483;50.828;3.228;2023-03-30T06:32:35;16.35;;;4.50;;
49578;SDS011;35483;50.828;3.228;2023-03-30T06:35:01;17.17;;;5.00;;
49578;SDS011;35483;50.828;3.228;2023-03-30T06:37:29;18.60;;;4.50;;
49578;SDS011;35483;50.828;3.228;2023-03-30T06:39:55;17.80;;;4.65;;
49578;SDS011;35483;50.828;3.228;2023-03-30T06:42:21;17.58;;;4.55;;
49578;SDS011;35483;50.828;3.228;2023-03-30T06:44:47;13.70;;;4.55;;
49578;SDS011;35483;50.828;3.228;2023-03-30T06:47:13;19.20;;;4.35;;
49578;SDS011;35483;50.828;3.228;2023-03-30T06:49:39;17.92;;;4.28;;
49578;SDS011;35483;50.828;3.228;2023-03-30T06:52:05;15.65;;;3.97;;
49578;SDS011;35483;50.828;3.228;2023-03-30T06:54:31;12.20;;;3.70;;
49578;SDS011;35483;50.828;3.228;2023-03-30T06:56:57;15.68;;;4.40;;
49578;SDS011;35483;50.828;3.228;2023-03-30T06:59:22;13.85;;;3.92;;
49578;SDS011;35483;50.828;3.228;2023-03-30T07:01:48;17.23;;;4.10;;
49578;SDS011;35483;50.828;3.228;2023-03-30T07:04:14;13.50;;;4.00;;
49578;SDS011;35483;50.828;3.228;2023-03-30T07:06:40;16.67;;;4.13;;
49578;SDS011;35483;50.828;3.228;2023-03-30T07:09:05;12.00;;;4.45;;
49578;SDS011;35483;50.828;3.228;2023-03-30T07:11:32;14.55;;;3.85;;
49578;SDS011;35483;50.828;3.228;2023-03-30T07:13:57;12.43;;;3.90;;
49578;SDS011;35483;50.828;3.228;2023-03-30T07:16:25;15.20;;;4.10;;
49578;SDS011;35483;50.828;3.228;2023-03-30T07:18:51;14.02;;;3.92;;
49578;SDS011;35483;50.828;3.228;2023-03-30T07:21:17;16.95;;;4.22;;
49578;SDS011;35483;50.828;3.228;2023-03-30T07:23:43;17.52;;;4.28;;
49578;SDS011;35483;50.828;3.228;2023-03-30T07:26:09;19.30;;;3.92;;
49578;SDS011;35483;50.828;3.228;2023-03-30T07:28:35;17.42;;;4.60;;
49578;SDS011;35483;50.828;3.228;2023-03-30T07:31:06;14.00;;;4.20;;
49578;SDS011;35483;50.828;3.228;2023-03-30T07:33:33;17.38;;;4.65;;
49578;SDS011;35483;50.828;3.228;2023-03-30T07:35:58;14.27;;;4.35;;
49578;SDS011;35483;50.828;3.228;2023-03-30T07:38:24;17.83;;;5.07;;
49578;SDS011;35483;50.828;3.228;2023-03-30T07:40:51;16.65;;;5.35;;
49578;SDS011;35483;50.828;3.228;2023-03-30T07:43:17;13.75;;;4.50;;
49578;SDS011;35483;50.828;3.228;2023-03-30T07:45:42;16.15;;;4.63;;
49578;SDS011;35483;50.828;3.228;2023-03-30T07:48:08;15.20;;;3.72;;
49578;SDS011;35483;50.828;3.228;2023-03-30T07:50:34;15.25;;;4.18;;
49578;SDS011;35483;50.828;3.228;2023-03-30T07:52:59;13.38;;;3.88;;
49578;SDS011;35483;50.828;3.228;2023-03-30T07:55:25;16.77;;;4.93;;
49578;SDS011;35483;50.828;3.228;2023-03-30T07:57:53;12.45;;;4.32;;
49578;SDS011;35483;50.828;3.228;2023-03-30T08:00:19;14.75;;;4.20;;
49578;SDS011;35483;50.828;3.228;2023-03-30T08:02:45;12.40;;;4.13;;
49578;SDS011;35483;50.828;3.228;2023-03-30T08:05:11;17.33;;;4.72;;
49578;SDS011;35483;50.828;3.228;2023-03-30T08:07:39;20.25;;;4.35;;
49578;SDS011;35483;50.828;3.228;2023-03-30T08:10:07;14.10;;;4.93;;
49578;SDS011;35483;50.828;3.228;2023-03-30T08:12:33;14.75;;;4.43;;
49578;SDS011;35483;50.828;3.228;2023-03-30T08:14:58;8.05;;;2.65;;
49578;SDS011;35483;50.828;3.228;2023-03-30T08:17:25;12.02;;;3.90;;
49578;SDS011;35483;50.828;3.228;2023-03-30T08:19:51;17.05;;;4.43;;
49578;SDS011;35483;50.828;3.228;2023-03-30T08:22:17;13.05;;;4.22;;
49578;SDS011;35483;50.828;3.228;2023-03-30T08:24:43;13.88;;;4.00;;
49578;SDS011;35483;50.828;3.228;2023-03-30T08:27:08;15.77;;;4.78;;
49578;SDS011;35483;50.828;3.228;2023-03-30T08:29:34;12.82;;;3.33;;
49578;SDS011;35483;50.828;3.228;2023-03-30T08:32:00;13.07;;;4.03;;
49578;SDS011;35483;50.828;3.228;2023-03-30T08:34:25;12.73;;;3.63;;
49578;SDS011;35483;50.828;3.228;2023-03-30T08:36:51;12.25;;;3.97;;
49578;SDS011;35483;50.828;3.228;2023-03-30T08:39:17;12.50;;;4.25;;
49578;SDS011;35483;50.828;3.228;2023-03-30T08:41:58;14.52;;;3.83;;
49578;SDS011;35483;50.828;3.228;2023-03-30T08:46:57;10.98;;;3.72;;
49578;SDS011;35483;50.828;3.228;2023-03-30T08:49:25;12.77;;;3.55;;
49578;SDS011;35483;50.828;3.228;2023-03-30T08:51:52;8.75;;;2.72;;
49578;SDS011;35483;50.828;3.228;2023-03-30T08:54:20;8.48;;;3.20;;
49578;SDS011;35483;50.828;3.228;2023-03-30T08:56:58;8.38;;;2.92;;
49578;SDS011;35483;50.828;3.228;2023-03-30T09:02:17;7.75;;;2.50;;
49578;SDS011;35483;50.828;3.228;2023-03-30T09:10:14;5.07;;;2.30;;
49578;SDS011;35483;50.828;3.228;2023-03-30T09:20:29;8.07;;;2.47;;
49578;SDS011;35483;50.828;3.228;2023-03-30T09:23:00;10.48;;;3.28;;
49578;SDS011;35483;50.828;3.228;2023-03-30T09:33:34;12.18;;;4.00;;
49578;SDS011;35483;50.828;3.228;2023-03-30T09:36:25;8.27;;;3.40;;
49578;SDS011;35483;50.828;3.228;2023-03-30T09:38:58;11.43;;;3.47;;
49578;SDS011;35483;50.828;3.228;2023-03-30T09:44:30;12.50;;;3.20;;
49578;SDS011;35483;50.828;3.228;2023-03-30T09:47:01;10.10;;;3.75;;
49578;SDS011;35483;50.828;3.228;2023-03-30T09:49:36;10.18;;;4.32;;
49578;SDS011;35483;50.828;3.228;2023-03-30T09:52:04;18.10;;;4.93;;
49578;SDS011;35483;50.828;3.228;2023-03-30T09:54:35;11.43;;;4.00;;
49578;SDS011;35483;50.828;3.228;2023-03-30T09:57:28;16.65;;;4.57;;
49578;SDS011;35483;50.828;3.228;2023-03-30T09:59:54;12.75;;;4.15;;
49578;SDS011;35483;50.828;3.228;2023-03-30T10:02:22;12.18;;;4.03;;
49578;SDS011;35483;50.828;3.228;2023-03-30T10:07:21;14.05;;;3.50;;
49578;SDS011;35483;50.828;3.228;2023-03-30T10:09:49;13.57;;;4.53;;
49578;SDS011;35483;50.828;3.228;2023-03-30T10:12:15;13.48;;;4.40;;
49578;SDS011;35483;50.828;3.228;2023-03-30T10:14:42;12.27;;;3.90;;
49578;SDS011;35483;50.828;3.228;2023-03-30T10:17:15;14.48;;;4.60;;
49578;SDS011;35483;50.828;3.228;2023-03-30T10:19:44;14.40;;;3.55;;
49578;SDS011;35483;50.828;3.228;2023-03-30T10:22:15;8.25;;;3.70;;
49578;SDS011;35483;50.828;3.228;2023-03-30T10:24:50;13.00;;;3.38;;
49578;SDS011;35483;50.828;3.228;2023-03-30T10:27:24;12.00;;;3.88;;
49578;SDS011;35483;50.828;3.228;2023-03-30T10:29:54;12.98;;;3.70;;
49578;SDS011;35483;50.828;3.228;2023-03-30T10:32:20;13.00;;;4.53;;
49578;SDS011;35483;50.828;3.228;2023-03-30T10:34:58;16.92;;;4.30;;
49578;SDS011;35483;50.828;3.228;2023-03-30T10:39:57;14.80;;;4.18;;
49578;SDS011;35483;50.828;3.228;2023-03-30T10:42:25;18.48;;;4.15;;
49578;SDS011;35483;50.828;3.228;2023-03-30T10:44:55;14.57;;;4.80;;
49578;SDS011;35483;50.828;3.228;2023-03-30T10:47:29;15.65;;;4.47;;
49578;SDS011;35483;50.828;3.228;2023-03-30T10:50:15;16.50;;;4.32;;
49578;SDS011;35483;50.828;3.228;2023-03-30T10:53:18;9.73;;;3.95;;
49578;SDS011;35483;50.828;3.228;2023-03-30T11:01:08;15.05;;;4.57;;
49578;SDS011;35483;50.828;3.228;2023-03-30T11:03:36;15.20;;;4.47;;
49578;SDS011;35483;50.828;3.228;2023-03-30T11:08:40;13.23;;;3.75;;
49578;SDS011;35483;50.828;3.228;2023-03-30T11:11:11;12.25;;;3.30;;
49578;SDS011;35483;50.828;3.228;2023-03-30T11:13:43;9.23;;;3.78;;
49578;SDS011;35483;50.828;3.228;2023-03-30T11:17:00;14.38;;;3.85;;
49578;SDS011;35483;50.828;3.228;2023-03-30T11:21:52;16.10;;;4.00;;
49578;SDS011;35483;50.828;3.228;2023-03-30T11:24:27;11.00;;;4.30;;
49578;SDS011;35483;50.828;3.228;2023-03-30T11:38:01;8.80;;;3.47;;
49578;SDS011;35483;50.828;3.228;2023-03-30T11:41:03;15.23;;;3.70;;
49578;SDS011;35483;50.828;3.228;2023-03-30T11:43:36;12.93;;;3.53;;
49578;SDS011;35483;50.828;3.228;2023-03-30T11:46:19;13.85;;;4.18;;
49578;SDS011;35483;50.828;3.228;2023-03-30T11:51:55;13.52;;;3.25;;
49578;SDS011;35483;50.828;3.228;2023-03-30T12:00:45;13.65;;;3.92;;
49578;SDS011;35483;50.828;3.228;2023-03-30T12:03:04;10.75;;;3.45;;
49578;SDS011;35483;50.828;3.228;2023-03-30T12:05:44;11.77;;;3.45;;
49578;SDS011;35483;50.828;3.228;2023-03-30T12:10:53;11.82;;;3.70;;
49578;SDS011;35483;50.828;3.228;2023-03-30T12:13:25;12.70;;;2.90;;
49578;SDS011;35483;50.828;3.228;2023-03-30T12:16:06;7.55;;;3.22;;
49578;SDS011;35483;50.828;3.228;2023-03-30T12:18:48;9.10;;;2.53;;
49578;SDS011;35483;50.828;3.228;2023-03-30T12:23:59;9.50;;;4.03;;
49578;SDS011;35483;50.828;3.228;2023-03-30T12:26:29;10.07;;;3.20;;
49578;SDS011;35483;50.828;3.228;2023-03-30T12:28:57;6.93;;;2.85;;
49578;SDS011;35483;50.828;3.228;2023-03-30T12:32:03;8.00;;;2.58;;
49578;SDS011;35483;50.828;3.228;2023-03-30T12:34:33;7.72;;;2.63;;
49578;SDS011;35483;50.828;3.228;2023-03-30T12:40:04;10.95;;;2.95;;
49578;SDS011;35483;50.828;3.228;2023-03-30T12:42:39;11.25;;;3.05;;
49578;SDS011;35483;50.828;3.228;2023-03-30T12:45:27;10.02;;;2.60;;
49578;SDS011;35483;50.828;3.228;2023-03-30T12:56:27;8.38;;;2.75;;
49578;SDS011;35483;50.828;3.228;2023-03-30T13:05:31;10.48;;;3.33;;
49578;SDS011;35483;50.828;3.228;2023-03-30T13:08:08;13.88;;;3.15;;
49578;SDS011;35483;50.828;3.228;2023-03-30T13:10:45;5.57;;;2.80;;
49578;SDS011;35483;50.828;3.228;2023-03-30T13:13:43;8.38;;;3.10;;
49578;SDS011;35483;50.828;3.228;2023-03-30T13:16:11;10.45;;;3.35;;
49578;SDS011;35483;50.828;3.228;2023-03-30T13:18:55;9.73;;;2.83;;
49578;SDS011;35483;50.828;3.228;2023-03-30T13:21:22;10.55;;;3.05;;
49578;SDS011;35483;50.828;3.228;2023-03-30T13:26:46;9.93;;;3.53;;
49578;SDS011;35483;50.828;3.228;2023-03-30T13:29:13;9.00;;;2.95;;
49578;SDS011;35483;50.828;3.228;2023-03-30T13:34:45;10.68;;;2.92;;
49578;SDS011;35483;50.828;3.228;2023-03-30T13:40:17;7.22;;;2.10;;
49578;SDS011;35483;50.828;3.228;2023-03-30T13:42:51;7.88;;;1.90;;
49578;SDS011;35483;50.828;3.228;2023-03-30T13:45:25;4.15;;;1.52;;
49578;SDS011;35483;50.828;3.228;2023-03-30T13:48:07;6.82;;;2.50;;
49578;SDS011;35483;50.828;3.228;2023-03-30T13:50:43;6.70;;;2.10;;
49578;SDS011;35483;50.828;3.228;2023-03-30T13:53:13;6.95;;;1.92;;
49578;SDS011;35483;50.828;3.228;2023-03-30T13:55:42;7.43;;;3.13;;
49578;SDS011;35483;50.828;3.228;2023-03-30T14:00:45;6.25;;;2.22;;
49578;SDS011;35483;50.828;3.228;2023-03-30T14:06:15;6.13;;;2.42;;
49578;SDS011;35483;50.828;3.228;2023-03-30T14:08:43;5.80;;;2.00;;
49578;SDS011;35483;50.828;3.228;2023-03-30T14:11:20;9.40;;;2.30;;
49578;SDS011;35483;50.828;3.228;2023-03-30T14:13:48;6.35;;;2.03;;
49578;SDS011;35483;50.828;3.228;2023-03-30T14:16:23;5.97;;;2.92;;
49578;SDS011;35483;50.828;3.228;2023-03-30T14:21:19;5.90;;;2.40;;
49578;SDS011;35483;50.828;3.228;2023-03-30T14:23:51;7.03;;;2.70;;
49578;SDS011;35483;50.828;3.228;2023-03-30T14:26:22;9.02;;;2.95;;
49578;SDS011;35483;50.828;3.228;2023-03-30T14:29:02;7.55;;;2.50;;
49578;SDS011;35483;50.828;3.228;2023-03-30T14:31:39;10.10;;;2.72;;
49578;SDS011;35483;50.828;3.228;2023-03-30T14:34:22;11.05;;;2.90;;
49578;SDS011;35483;50.828;3.228;2023-03-30T14:36:50;7.47;;;2.38;;
49578;SDS011;35483;50.828;3.228;2023-03-30T14:39:16;9.57;;;2.65;;
49578;SDS011;35483;50.828;3.228;2023-03-30T14:41:45;8.38;;;2.83;;
49578;SDS011;35483;50.828;3.228;2023-03-30T14:44:10;20.42;;;2.97;;
49578;SDS011;35483;50.828;3.228;2023-03-30T14:46:39;6.72;;;2.25;;
49578;SDS011;35483;50.828;3.228;2023-03-30T14:49:07;7.88;;;2.47;;
49578;SDS011;35483;50.828;3.228;2023-03-30T14:51:50;7.75;;;2.58;;
49578;SDS011;35483;50.828;3.228;2023-03-30T14:54:19;6.10;;;2.30;;
49578;SDS011;35483;50.828;3.228;2023-03-30T14:56:50;7.10;;;3.58;;
49578;SDS011;35483;50.828;3.228;2023-03-30T14:59:23;10.55;;;2.47;;
49578;SDS011;35483;50.828;3.228;2023-03-30T15:01:51;12.63;;;2.55;;
49578;SDS011;35483;50.828;3.228;2023-03-30T15:04:18;9.77;;;3.22;;
49578;SDS011;35483;50.828;3.228;2023-03-30T15:06:47;9.63;;;2.78;;
49578;SDS011;35483;50.828;3.228;2023-03-30T15:09:18;5.70;;;2.95;;
49578;SDS011;35483;50.828;3.228;2023-03-30T15:11:58;10.13;;;2.90;;
49578;SDS011;35483;50.828;3.228;2023-03-30T15:14:28;9.70;;;2.78;;
49578;SDS011;35483;50.828;3.228;2023-03-30T15:17:10;10.15;;;3.25;;
49578;SDS011;35483;50.828;3.228;2023-03-30T15:19:42;10.52;;;2.53;;
49578;SDS011;35483;50.828;3.228;2023-03-30T15:22:11;12.80;;;3.45;;
49578;SDS011;35483;50.828;3.228;2023-03-30T15:24:51;9.82;;;3.45;;
49578;SDS011;35483;50.828;3.228;2023-03-30T15:27:18;9.25;;;3.42;;
49578;SDS011;35483;50.828;3.228;2023-03-30T15:29:45;10.23;;;3.63;;
49578;SDS011;35483;50.828;3.228;2023-03-30T15:32:16;12.70;;;3.38;;
49578;SDS011;35483;50.828;3.228;2023-03-30T15:37:28;11.13;;;3.77;;
49578;SDS011;35483;50.828;3.228;2023-03-30T15:39:56;13.98;;;3.50;;
49578;SDS011;35483;50.828;3.228;2023-03-30T15:42:31;11.20;;;3.28;;
49578;SDS011;35483;50.828;3.228;2023-03-30T15:45:08;10.80;;;3.53;;
49578;SDS011;35483;50.828;3.228;2023-03-30T15:47:35;8.23;;;2.80;;
49578;SDS011;35483;50.828;3.228;2023-03-30T15:50:01;9.40;;;3.05;;
49578;SDS011;35483;50.828;3.228;2023-03-30T15:54:56;8.23;;;3.30;;
49578;SDS011;35483;50.828;3.228;2023-03-30T15:57:47;10.25;;;3.53;;
49578;SDS011;35483;50.828;3.228;2023-03-30T16:00:33;9.75;;;2.97;;
49578;SDS011;35483;50.828;3.228;2023-03-30T16:02:59;8.60;;;2.70;;
49578;SDS011;35483;50.828;3.228;2023-03-30T16:05:30;4.53;;;2.22;;
49578;SDS011;35483;50.828;3.228;2023-03-30T16:07:57;8.85;;;2.80;;
49578;SDS011;35483;50.828;3.228;2023-03-30T16:10:24;8.18;;;2.63;;
49578;SDS011;35483;50.828;3.228;2023-03-30T16:12:55;11.43;;;3.10;;
49578;SDS011;35483;50.828;3.228;2023-03-30T16:15:23;6.43;;;2.47;;
49578;SDS011;35483;50.828;3.228;2023-03-30T16:17:53;10.35;;;3.45;;
49578;SDS011;35483;50.828;3.228;2023-03-30T16:20:20;8.98;;;3.25;;
49578;SDS011;35483;50.828;3.228;2023-03-30T16:22:50;9.18;;;2.65;;
49578;SDS011;35483;50.828;3.228;2023-03-30T16:25:17;8.43;;;3.00;;
49578;SDS011;35483;50.828;3.228;2023-03-30T16:27:45;6.90;;;3.15;;
49578;SDS011;35483;50.828;3.228;2023-03-30T16:30:16;9.07;;;2.80;;
49578;SDS011;35483;50.828;3.228;2023-03-30T16:32:45;9.23;;;2.33;;
49578;SDS011;35483;50.828;3.228;2023-03-30T16:35:10;8.30;;;3.40;;
49578;SDS011;35483;50.828;3.228;2023-03-30T16:37:36;10.77;;;2.58;;
49578;SDS011;35483;50.828;3.228;2023-03-30T16:40:09;9.15;;;2.78;;
49578;SDS011;35483;50.828;3.228;2023-03-30T16:42:57;12.52;;;3.25;;
49578;SDS011;35483;50.828;3.228;2023-03-30T16:45:23;11.57;;;3.33;;
49578;SDS011;35483;50.828;3.228;2023-03-30T16:47:50;8.90;;;3.08;;
49578;SDS011;35483;50.828;3.228;2023-03-30T16:50:21;9.13;;;2.90;;
49578;SDS011;35483;50.828;3.228;2023-03-30T16:52:49;9.00;;;3.38;;
49578;SDS011;35483;50.828;3.228;2023-03-30T16:55:15;9.00;;;3.30;;
49578;SDS011;35483;50.828;3.228;2023-03-30T16:57:42;8.52;;;2.63;;
49578;SDS011;35483;50.828;3.228;2023-03-30T17:00:27;7.70;;;2.70;;
49578;SDS011;35483;50.828;3.228;2023-03-30T17:02:55;8.77;;;2.50;;
49578;SDS011;35483;50.828;3.228;2023-03-30T17:05:21;7.15;;;2.38;;
49578;SDS011;35483;50.828;3.228;2023-03-30T17:07:47;8.00;;;2.70;;
49578;SDS011;35483;50.828;3.228;2023-03-30T17:12:50;6.95;;;2.22;;
49578;SDS011;35483;50.828;3.228;2023-03-30T17:15:17;11.38;;;2.60;;
49578;SDS011;35483;50.828;3.228;2023-03-30T17:17:43;7.70;;;2.38;;
49578;SDS011;35483;50.828;3.228;2023-03-30T17:20:17;6.35;;;2.30;;
49578;SDS011;35483;50.828;3.228;2023-03-30T17:22:46;7.28;;;2.60;;
49578;SDS011;35483;50.828;3.228;2023-03-30T17:25:12;5.13;;;2.10;;
49578;SDS011;35483;50.828;3.228;2023-03-30T17:27:39;8.13;;;2.78;;
49578;SDS011;35483;50.828;3.228;2023-03-30T17:30:14;9.50;;;2.60;;
49578;SDS011;35483;50.828;3.228;2023-03-30T17:32:41;7.22;;;2.65;;
49578;SDS011;35483;50.828;3.228;2023-03-30T17:35:07;9.85;;;3.00;;
49578;SDS011;35483;50.828;3.228;2023-03-30T17:37:34;5.32;;;2.30;;